Terminal Aerodrome Forecast
Issued by NWS

Home | Current Version | Previous Version | Text Only | Print | Product List | Glossary On
Versions: 1 2 3 4 5 6 7 8 9 10 11 12 13 14
000
FTUS45 KABQ 240536
TAFFMN
TAF
KFMN 240536Z 2406/2506 29011KT P6SM VCSH SCT070 BKN100
     FM240900 VRB06KT P6SM VCSH SCT070 BKN110
      TEMPO 2409/2413 6SM -SHRA BKN070
     FM241600 12006KT P6SM SCT120
     FM242000 26010KT P6SM SCT080
     FM250200 08008KT P6SM SCT150=

USA.gov is the U.S. government's official web portal to all federal, state and local government web resources and services.